Pagina principală
METAR-TAF:

METAR-TAF

Aeroporturi :

Williams Field, Antarctica

Latitudine: 77-52S, longitudine: 166-58E, elevație: 8 m

Observații meteo curente

Raportul a fost făcut în urmă cu 56 de minute, la 15:55 UTC
Vânt 36 kt de la Sud-est cu rafale de până la 46 kt
Temperatură -17°C
Umiditate 84%
Presiune 989 hPa
Vizibilitate: 1700 m
Total acoperit la o înălțime de 500 picior
transport de zăpadă, aer cețos

METAR: NZCM 131555Z AUTO 14036G46KT 1700 BLSN BR OVC005 M17/M19 A2920 RMK AO2 PK WND 13046/1551 SNB1550E1551 SLP894 T11661193 $

Ora: 16:51 (16:51 UTC)


TAF: lipsă

Observații și prognoze meteo pentru peste 4.000 de aeroporturi (rapoarte METAR și TAF).

Stațiile disponibile sunt reprezentate pe hartă prin puncte galbene și roșii.

Țineți indicatorul mouse-ului pe punctul dorit pentru a vedea denumirea stației.

Apoi, faceți clic pentru a vedea observațiile și prognozele meteorologice.

Pentru a schimba harta: Pentru mărire, faceți clic pe butoanele verzi cu cruce neagră; pentru micșorare, pe butonul verde cu o liniuță; pentru hărți învecinate, pe săgețile verzi.


METAR-TAF: